Time;durP1;ratioP1;P1;durP2;ratioP2;P2;SDS_P1;SDS_P2;PMS_P1;PMS_P2;Temp;Humidity;BMP_temperature;BMP_pressure;BME280_temperature;BME280_humidity;BME280_pressure;Samples;Min_cycle;Max_cycle;Signal;HPM_P1;HPM_P2
2023/12/08 00:00:07;;;;;;;28.90;6.85;;;;;;;;;;5009492;28;20053;-77
2023/12/08 00:02:32;;;;;;;11.90;6.25;;;;;;;;;;5013004;28;20042;-79
2023/12/08 00:04:58;;;;;;;9.23;4.13;;;;;;;;;;4986918;28;20025;-77
2023/12/08 00:07:23;;;;;;;13.77;5.82;;;;;;;;;;5008651;28;20088;-79
2023/12/08 00:09:48;;;;;;;4.97;3.72;;;;;;;;;;5006929;28;20068;-79
2023/12/08 00:12:13;;;;;;;9.00;4.75;;;;;;;;;;5011211;28;20017;-79
2023/12/08 00:14:39;;;;;;;6.90;4.82;;;;;;;;;;5002362;28;20022;-79
2023/12/08 00:17:05;;;;;;;10.52;5.03;;;;;;;;;;5011215;28;20465;-79
2023/12/08 00:19:31;;;;;;;6.28;4.38;;;;;;;;;;5003963;28;20054;-77
2023/12/08 00:21:56;;;;;;;7.38;4.65;;;;;;;;;;5007277;28;20077;-79
2023/12/08 00:24:21;;;;;;;7.57;4.75;;;;;;;;;;5004451;28;20088;-77
2023/12/08 00:26:47;;;;;;;10.90;5.93;;;;;;;;;;4998362;28;20050;-79
2023/12/08 00:29:12;;;;;;;65.70;7.22;;;;;;;;;;5000630;28;20042;-79
2023/12/08 00:31:37;;;;;;;9.55;5.05;;;;;;;;;;4997903;28;20402;-77
2023/12/08 00:34:02;;;;;;;6.03;3.55;;;;;;;;;;4997749;28;20036;-76
2023/12/08 00:36:28;;;;;;;7.50;4.28;;;;;;;;;;4996961;28;20069;-78
2023/12/08 00:38:54;;;;;;;2.90;2.22;;;;;;;;;;5001138;28;20030;-77
2023/12/08 00:41:19;;;;;;;5.22;4.07;;;;;;;;;;4997426;28;20041;-77
2023/12/08 00:43:44;;;;;;;9.93;5.85;;;;;;;;;;4995366;28;20423;-77
2023/12/08 00:46:10;;;;;;;8.68;4.50;;;;;;;;;;4987658;28;20364;-77
2023/12/08 00:48:35;;;;;;;5.13;3.85;;;;;;;;;;5006853;28;20498;-77
2023/12/08 00:51:00;;;;;;;13.98;5.90;;;;;;;;;;5006694;28;20313;-77
2023/12/08 00:53:26;;;;;;;16.42;7.90;;;;;;;;;;5001077;28;20108;-78
2023/12/08 00:55:51;;;;;;;5.38;3.63;;;;;;;;;;4992950;28;20046;-77
2023/12/08 00:58:16;;;;;;;11.25;4.85;;;;;;;;;;5001982;28;20121;-78
2023/12/08 01:00:43;;;;;;;7.32;4.68;;;;;;;;;;5000708;28;20399;-77
2023/12/08 01:03:08;;;;;;;10.00;6.00;;;;;;;;;;4993619;28;20030;-77
2023/12/08 01:05:34;;;;;;;14.93;6.30;;;;;;;;;;5002237;28;20109;-78
2023/12/08 01:07:59;;;;;;;6.53;4.53;;;;;;;;;;5004362;28;20034;-77
2023/12/08 01:10:24;;;;;;;13.63;5.75;;;;;;;;;;5005538;28;20554;-77
2023/12/08 01:12:49;;;;;;;19.48;5.28;;;;;;;;;;5005666;28;20058;-77
2023/12/08 01:15:15;;;;;;;8.02;4.93;;;;;;;;;;4981586;28;20028;-77
2023/12/08 01:17:40;;;;;;;11.23;4.95;;;;;;;;;;5002845;28;20022;-77
2023/12/08 01:20:07;;;;;;;8.13;4.63;;;;;;;;;;5006562;28;20069;-76
2023/12/08 01:22:33;;;;;;;13.05;6.40;;;;;;;;;;4999602;28;20065;-77
2023/12/08 01:24:58;;;;;;;6.60;4.50;;;;;;;;;;5009777;28;20494;-77
2023/12/08 01:27:23;;;;;;;14.63;9.50;;;;;;;;;;4985800;28;20034;-77
2023/12/08 01:29:49;;;;;;;15.82;8.88;;;;;;;;;;5009250;28;20029;-76
2023/12/08 01:32:15;;;;;;;11.05;5.68;;;;;;;;;;4996902;28;20457;-77
2023/12/08 01:34:41;;;;;;;9.57;4.63;;;;;;;;;;5005952;28;20286;-77
2023/12/08 01:37:06;;;;;;;12.07;6.25;;;;;;;;;;5010689;28;20061;-77
2023/12/08 01:39:31;;;;;;;10.02;5.85;;;;;;;;;;5005126;28;20034;-77
2023/12/08 01:41:56;;;;;;;9.40;5.78;;;;;;;;;;4998318;28;20033;-77
2023/12/08 01:44:22;;;;;;;8.73;5.88;;;;;;;;;;5007058;28;20034;-77
2023/12/08 01:46:48;;;;;;;10.82;5.22;;;;;;;;;;5005106;28;20027;-76
2023/12/08 01:49:15;;;;;;;8.95;5.63;;;;;;;;;;5011107;28;20037;-77
2023/12/08 01:51:41;;;;;;;15.77;5.63;;;;;;;;;;5008273;28;20062;-77
2023/12/08 01:54:06;;;;;;;12.10;5.47;;;;;;;;;;5010430;28;20105;-77
2023/12/08 01:56:32;;;;;;;7.55;4.93;;;;;;;;;;5004005;28;20018;-77
2023/12/08 01:58:57;;;;;;;7.63;5.07;;;;;;;;;;5000815;28;20113;-77
2023/12/08 02:01:23;;;;;;;8.10;4.55;;;;;;;;;;5000209;28;20037;-77
2023/12/08 02:03:50;;;;;;;6.72;4.18;;;;;;;;;;5011642;28;20034;-76
2023/12/08 02:06:16;;;;;;;7.38;4.68;;;;;;;;;;4999954;28;20022;-76
2023/12/08 02:08:41;;;;;;;9.32;5.00;;;;;;;;;;5009205;28;20087;-78
2023/12/08 02:11:06;;;;;;;8.13;5.50;;;;;;;;;;4992513;28;20038;-77
2023/12/08 02:13:32;;;;;;;12.85;6.25;;;;;;;;;;5004750;28;20044;-78
2023/12/08 02:16:07;;;;;;;7.90;5.15;;;;;;;;;;4999377;28;20038;-80
2023/12/08 02:18:34;;;;;;;13.30;5.35;;;;;;;;;;5004039;28;20573;-77
2023/12/08 02:21:01;;;;;;;10.15;5.10;;;;;;;;;;5001090;28;20032;-77
2023/12/08 02:23:26;;;;;;;11.57;5.22;;;;;;;;;;5007031;28;20087;-77
2023/12/08 02:25:51;;;;;;;7.85;5.28;;;;;;;;;;4995318;28;20038;-77
2023/12/08 02:28:17;;;;;;;12.70;6.28;;;;;;;;;;5002948;28;21711;-77
2023/12/08 02:30:42;;;;;;;11.57;5.82;;;;;;;;;;5005883;28;20108;-77
2023/12/08 02:33:13;;;;;;;9.88;5.35;;;;;;;;;;5010372;28;20030;-76
2023/12/08 02:35:41;;;;;;;8.15;5.40;;;;;;;;;;5006006;28;20109;-76
2023/12/08 02:38:08;;;;;;;14.70;6.47;;;;;;;;;;5003995;28;20045;-77
2023/12/08 02:40:35;;;;;;;11.98;6.38;;;;;;;;;;5008544;28;20030;-76
2023/12/08 02:43:01;;;;;;;9.00;5.03;;;;;;;;;;5007280;28;20106;-76
2023/12/08 02:45:26;;;;;;;12.95;5.57;;;;;;;;;;5007214;28;20502;-77
2023/12/08 02:47:51;;;;;;;13.05;5.72;;;;;;;;;;4996665;28;20121;-77
2023/12/08 02:50:16;;;;;;;101.68;10.20;;;;;;;;;;5004915;28;20037;-77
2023/12/08 02:52:42;;;;;;;47.28;6.97;;;;;;;;;;4999843;28;20031;-76
2023/12/08 02:55:08;;;;;;;23.48;6.63;;;;;;;;;;5003560;28;20566;-76
2023/12/08 02:57:33;;;;;;;17.90;6.40;;;;;;;;;;5005132;28;20034;-77
2023/12/08 02:59:59;;;;;;;8.20;5.40;;;;;;;;;;5005061;28;20502;-77
2023/12/08 03:02:24;;;;;;;8.13;4.57;;;;;;;;;;5003491;28;20030;-76
2023/12/08 03:04:50;;;;;;;7.82;4.93;;;;;;;;;;5005271;28;20034;-77
2023/12/08 03:07:15;;;;;;;8.38;4.55;;;;;;;;;;5007326;28;20033;-77
2023/12/08 03:09:40;;;;;;;8.23;4.38;;;;;;;;;;4998941;28;20049;-77
2023/12/08 03:12:06;;;;;;;10.05;3.00;;;;;;;;;;5005838;28;20113;-77
2023/12/08 03:14:31;;;;;;;3.95;2.65;;;;;;;;;;5005192;28;20022;-76
2023/12/08 03:16:56;;;;;;;3.13;1.40;;;;;;;;;;5003503;28;20045;-76
2023/12/08 03:19:21;;;;;;;4.80;2.92;;;;;;;;;;5000673;28;20752;-76
2023/12/08 03:21:47;;;;;;;2.60;2.35;;;;;;;;;;5006089;28;20038;-76
2023/12/08 03:24:12;;;;;;;3.97;2.30;;;;;;;;;;5002255;28;20026;-76
2023/12/08 03:26:38;;;;;;;5.25;4.07;;;;;;;;;;5008193;28;20037;-76
2023/12/08 03:29:03;;;;;;;10.52;5.43;;;;;;;;;;4999121;28;20034;-76
2023/12/08 03:31:32;;;;;;;7.07;4.40;;;;;;;;;;4987784;28;20065;-76
2023/12/08 03:33:57;;;;;;;7.97;4.80;;;;;;;;;;5007137;28;20038;-76
2023/12/08 03:36:23;;;;;;;12.18;7.25;;;;;;;;;;5002104;28;20042;-76
2023/12/08 03:38:48;;;;;;;5.55;4.30;;;;;;;;;;5007314;28;20088;-76
2023/12/08 03:41:14;;;;;;;13.63;6.43;;;;;;;;;;4997643;28;20034;-76
2023/12/08 03:43:39;;;;;;;9.85;6.25;;;;;;;;;;5003118;28;20026;-76
2023/12/08 03:46:06;;;;;;;10.48;6.45;;;;;;;;;;4999239;28;20113;-76
2023/12/08 03:48:31;;;;;;;11.60;5.10;;;;;;;;;;4997867;28;20038;-76
2023/12/08 03:50:56;;;;;;;12.77;5.53;;;;;;;;;;5006143;28;20034;-76
2023/12/08 03:53:22;;;;;;;15.38;7.95;;;;;;;;;;5001316;28;20030;-76
2023/12/08 03:55:48;;;;;;;13.95;7.40;;;;;;;;;;4996694;28;20116;-76
2023/12/08 03:58:13;;;;;;;14.07;5.47;;;;;;;;;;4998233;28;20074;-76
2023/12/08 04:00:38;;;;;;;3.95;2.92;;;;;;;;;;5008475;28;20144;-76
2023/12/08 04:03:04;;;;;;;5.35;3.65;;;;;;;;;;5001980;28;20101;-76
2023/12/08 04:05:29;;;;;;;9.93;5.70;;;;;;;;;;5002029;28;20034;-76
2023/12/08 04:07:54;;;;;;;10.32;5.30;;;;;;;;;;4989247;28;20034;-76
2023/12/08 04:10:20;;;;;;;9.82;5.00;;;;;;;;;;5004501;28;20030;-76
2023/12/08 04:12:45;;;;;;;11.95;4.85;;;;;;;;;;4999701;28;20062;-76
2023/12/08 04:15:10;;;;;;;7.72;4.65;;;;;;;;;;5003847;28;20034;-76
2023/12/08 04:17:36;;;;;;;6.85;5.10;;;;;;;;;;4991753;28;20026;-76
2023/12/08 04:20:01;;;;;;;8.55;5.28;;;;;;;;;;5004692;28;20041;-77
2023/12/08 04:22:26;;;;;;;7.45;4.40;;;;;;;;;;4999335;28;20053;-76
2023/12/08 04:24:52;;;;;;;12.52;6.70;;;;;;;;;;4995758;28;20437;-76
2023/12/08 04:27:17;;;;;;;11.57;6.40;;;;;;;;;;4997919;28;20372;-77
2023/12/08 04:29:43;;;;;;;17.25;6.65;;;;;;;;;;4985680;28;20026;-76
2023/12/08 04:32:08;;;;;;;18.13;6.80;;;;;;;;;;4992017;28;20121;-76
2023/12/08 04:34:33;;;;;;;12.43;7.45;;;;;;;;;;5001704;28;20057;-76
2023/12/08 04:36:59;;;;;;;9.73;5.78;;;;;;;;;;5003184;28;20503;-76
2023/12/08 04:39:24;;;;;;;9.23;5.05;;;;;;;;;;4994381;28;20108;-76
2023/12/08 04:41:49;;;;;;;10.43;6.28;;;;;;;;;;5002270;28;20026;-76
2023/12/08 04:44:14;;;;;;;7.28;5.05;;;;;;;;;;4993663;28;20395;-76
2023/12/08 04:46:40;;;;;;;10.05;5.35;;;;;;;;;;4996585;28;20075;-76
2023/12/08 04:49:05;;;;;;;10.27;6.38;;;;;;;;;;4980801;28;20026;-76
2023/12/08 04:51:30;;;;;;;12.45;6.93;;;;;;;;;;5006812;28;20097;-77
2023/12/08 04:53:55;;;;;;;15.32;6.57;;;;;;;;;;4988714;28;20089;-76
2023/12/08 04:56:21;;;;;;;9.60;6.18;;;;;;;;;;4990299;28;20514;-76
2023/12/08 04:58:47;;;;;;;9.18;5.97;;;;;;;;;;5009107;28;20029;-76
2023/12/08 05:01:14;;;;;;;32.22;17.10;;;;;;;;;;5012631;28;20157;-76
2023/12/08 05:03:40;;;;;;;14.20;8.80;;;;;;;;;;5007478;28;20102;-76
2023/12/08 05:06:06;;;;;;;11.70;6.80;;;;;;;;;;5011335;28;20493;-76
2023/12/08 05:08:32;;;;;;;4.72;3.08;;;;;;;;;;5005594;28;20349;-76
2023/12/08 05:10:57;;;;;;;4.50;3.25;;;;;;;;;;5011616;28;20045;-78
2023/12/08 05:13:22;;;;;;;9.00;4.38;;;;;;;;;;5003241;28;20073;-76
2023/12/08 05:15:47;;;;;;;7.22;4.50;;;;;;;;;;5007277;28;20034;-76
2023/12/08 05:18:13;;;;;;;4.50;3.53;;;;;;;;;;5007112;28;20034;-76
2023/12/08 05:20:38;;;;;;;5.03;4.05;;;;;;;;;;5000571;28;20030;-76
2023/12/08 05:23:03;;;;;;;5.53;3.67;;;;;;;;;;4998656;28;20037;-77
2023/12/08 05:25:29;;;;;;;6.93;4.03;;;;;;;;;;5005051;28;20030;-78
2023/12/08 05:27:54;;;;;;;5.07;2.90;;;;;;;;;;5005037;28;20041;-77
2023/12/08 05:30:19;;;;;;;5.85;3.90;;;;;;;;;;5004288;28;20022;-76
2023/12/08 05:32:45;;;;;;;3.85;3.38;;;;;;;;;;5004544;28;20029;-76
2023/12/08 05:35:10;;;;;;;6.32;3.85;;;;;;;;;;5011553;28;20551;-76
2023/12/08 05:37:35;;;;;;;3.83;2.95;;;;;;;;;;5009500;28;20030;-76
2023/12/08 05:40:01;;;;;;;5.10;3.75;;;;;;;;;;5004465;28;20418;-77
2023/12/08 05:42:26;;;;;;;4.82;3.40;;;;;;;;;;5010234;28;20022;-77
2023/12/08 05:44:51;;;;;;;6.47;3.45;;;;;;;;;;5003856;28;20030;-76
2023/12/08 05:47:17;;;;;;;14.45;6.18;;;;;;;;;;4990157;28;20503;-78
2023/12/08 05:49:43;;;;;;;9.57;4.93;;;;;;;;;;5008887;28;20030;-76
2023/12/08 05:52:09;;;;;;;4.75;3.20;;;;;;;;;;5006812;28;20034;-77
2023/12/08 05:54:34;;;;;;;4.30;3.17;;;;;;;;;;5005751;28;20395;-76
2023/12/08 05:56:59;;;;;;;2.50;2.10;;;;;;;;;;5001901;28;20037;-76
2023/12/08 05:59:24;;;;;;;2.15;1.63;;;;;;;;;;5001865;28;20351;-76
2023/12/08 06:01:50;;;;;;;4.85;2.50;;;;;;;;;;5005746;28;20034;-76
2023/12/08 06:04:16;;;;;;;2.45;1.80;;;;;;;;;;5004320;28;20070;-76
2023/12/08 06:06:41;;;;;;;2.53;1.85;;;;;;;;;;5008617;28;20041;-77
2023/12/08 06:09:07;;;;;;;1.60;1.50;;;;;;;;;;5007465;28;20025;-76
2023/12/08 06:11:33;;;;;;;1.55;1.45;;;;;;;;;;4986783;28;20085;-76
2023/12/08 06:13:58;;;;;;;1.70;1.60;;;;;;;;;;5012302;28;20103;-79
2023/12/08 06:16:23;;;;;;;1.75;1.50;;;;;;;;;;5009036;28;20154;-78
2023/12/08 06:18:50;;;;;;;1.83;1.73;;;;;;;;;;5004296;28;20371;-78
2023/12/08 06:21:17;;;;;;;1.60;1.50;;;;;;;;;;5007102;28;20037;-77
2023/12/08 06:23:42;;;;;;;1.92;1.65;;;;;;;;;;5011287;28;20023;-78
2023/12/08 06:26:07;;;;;;;1.33;1.23;;;;;;;;;;5009993;28;20045;-78
2023/12/08 06:28:33;;;;;;;2.85;1.70;;;;;;;;;;4991353;28;20410;-78
2023/12/08 06:30:58;;;;;;;2.40;1.60;;;;;;;;;;5005692;28;20039;-78
2023/12/08 06:33:24;;;;;;;2.33;2.05;;;;;;;;;;5011361;28;20063;-77
2023/12/08 06:35:49;;;;;;;3.47;2.42;;;;;;;;;;5005539;28;20641;-78
2023/12/08 06:38:14;;;;;;;2.35;2.10;;;;;;;;;;5007182;28;20030;-77
2023/12/08 06:40:40;;;;;;;2.45;1.88;;;;;;;;;;5010265;28;20658;-78
2023/12/08 06:43:06;;;;;;;1.63;1.50;;;;;;;;;;4999965;28;20525;-78
2023/12/08 06:45:31;;;;;;;2.28;1.70;;;;;;;;;;5005070;28;20032;-76
2023/12/08 06:47:56;;;;;;;1.52;1.40;;;;;;;;;;4999020;28;20034;-76
2023/12/08 06:50:22;;;;;;;6.50;1.60;;;;;;;;;;5008345;28;20109;-76
2023/12/08 06:52:51;;;;;;;1.52;1.42;;;;;;;;;;5010673;28;20042;-77
2023/12/08 06:55:16;;;;;;;2.22;1.45;;;;;;;;;;5009896;28;20531;-76
2023/12/08 06:57:41;;;;;;;1.58;1.35;;;;;;;;;;5008199;28;20045;-76
2023/12/08 07:00:10;;;;;;;1.45;1.35;;;;;;;;;;5005952;28;20021;-76
2023/12/08 07:02:35;;;;;;;1.52;1.42;;;;;;;;;;5003815;28;20457;-76
2023/12/08 07:05:01;;;;;;;1.52;1.40;;;;;;;;;;5006296;28;20100;-77
2023/12/08 07:07:26;;;;;;;1.50;1.40;;;;;;;;;;5006942;28;20104;-76
2023/12/08 07:09:52;;;;;;;1.70;1.60;;;;;;;;;;5003573;28;20034;-76
2023/12/08 07:12:17;;;;;;;1.67;1.35;;;;;;;;;;5004128;28;20027;-77
2023/12/08 07:14:43;;;;;;;1.27;1.20;;;;;;;;;;5002218;28;20033;-77
2023/12/08 07:17:08;;;;;;;2.28;1.73;;;;;;;;;;5005940;28;20105;-77
2023/12/08 07:19:33;;;;;;;1.67;1.58;;;;;;;;;;5003950;28;20062;-77
2023/12/08 07:21:59;;;;;;;1.80;1.35;;;;;;;;;;5004907;28;20038;-77
2023/12/08 07:24:25;;;;;;;2.47;1.60;;;;;;;;;;5000941;28;20049;-77
2023/12/08 07:26:54;;;;;;;1.40;1.30;;;;;;;;;;5002286;28;20026;-77
2023/12/08 07:29:21;;;;;;;1.13;1.10;;;;;;;;;;4999574;28;20034;-76
2023/12/08 07:31:46;;;;;;;1.95;1.52;;;;;;;;;;5004457;28;20434;-78
2023/12/08 07:34:11;;;;;;;2.25;1.85;;;;;;;;;;5004561;28;20041;-77
2023/12/08 07:36:36;;;;;;;2.25;1.67;;;;;;;;;;5008023;28;20041;-76
2023/12/08 07:39:02;;;;;;;3.33;2.03;;;;;;;;;;5002700;28;20026;-77
2023/12/08 07:41:27;;;;;;;2.75;1.52;;;;;;;;;;4999107;28;20449;-77
2023/12/08 07:43:54;;;;;;;4.05;2.10;;;;;;;;;;5000254;28;20034;-77
2023/12/08 07:46:22;;;;;;;2.13;1.50;;;;;;;;;;5004221;28;20037;-77
2023/12/08 07:48:48;;;;;;;2.55;1.75;;;;;;;;;;5008703;28;20132;-77
2023/12/08 07:51:13;;;;;;;6.10;1.92;;;;;;;;;;5004977;28;20535;-78
2023/12/08 07:53:39;;;;;;;2.55;2.10;;;;;;;;;;5009487;28;20022;-77
2023/12/08 07:56:05;;;;;;;2.20;2.00;;;;;;;;;;5006929;28;20037;-76
2023/12/08 07:58:30;;;;;;;4.00;2.60;;;;;;;;;;5001687;28;20120;-77
2023/12/08 08:00:55;;;;;;;2.50;2.00;;;;;;;;;;4997119;28;20092;-77
2023/12/08 08:03:21;;;;;;;2.72;2.08;;;;;;;;;;4999054;28;20084;-77
2023/12/08 08:05:46;;;;;;;2.95;1.75;;;;;;;;;;4992824;28;20105;-77
2023/12/08 08:08:11;;;;;;;5.15;2.80;;;;;;;;;;4994322;28;20049;-76
2023/12/08 08:10:36;;;;;;;8.05;3.67;;;;;;;;;;5005511;28;20049;-77
2023/12/08 08:13:02;;;;;;;9.45;3.72;;;;;;;;;;5008144;28;20037;-78
2023/12/08 08:15:27;;;;;;;4.35;2.67;;;;;;;;;;4994408;28;20046;-78
2023/12/08 08:17:52;;;;;;;3.75;2.00;;;;;;;;;;4992892;28;20026;-78
2023/12/08 08:20:17;;;;;;;2.20;1.42;;;;;;;;;;4992378;28;20026;-77
2023/12/08 08:22:43;;;;;;;1.40;1.30;;;;;;;;;;5005067;28;20117;-77
2023/12/08 08:25:08;;;;;;;2.22;1.65;;;;;;;;;;5007697;28;20077;-77
2023/12/08 08:27:33;;;;;;;2.47;1.63;;;;;;;;;;5006777;28;20277;-78
2023/12/08 08:29:59;;;;;;;2.17;1.40;;;;;;;;;;4998185;28;20026;-77
2023/12/08 08:32:24;;;;;;;2.63;1.40;;;;;;;;;;5002575;28;20096;-77
2023/12/08 08:34:51;;;;;;;1.95;1.70;;;;;;;;;;5003226;28;20337;-78
2023/12/08 08:37:16;;;;;;;1.50;1.40;;;;;;;;;;4994856;28;20050;-79
2023/12/08 08:39:42;;;;;;;1.80;1.70;;;;;;;;;;5007853;28;20445;-78
2023/12/08 08:42:07;;;;;;;2.30;1.52;;;;;;;;;;5006757;28;20472;-78
2023/12/08 08:44:33;;;;;;;2.72;2.15;;;;;;;;;;5001755;28;20025;-78
2023/12/08 08:46:58;;;;;;;2.60;2.05;;;;;;;;;;4993318;28;20037;-78
2023/12/08 08:49:24;;;;;;;9.43;4.68;;;;;;;;;;5001291;28;20034;-78
2023/12/08 08:51:49;;;;;;;6.93;4.82;;;;;;;;;;4999219;28;20113;-78
2023/12/08 08:54:15;;;;;;;9.32;6.78;;;;;;;;;;5002006;28;20028;-78
2023/12/08 08:56:40;;;;;;;10.50;7.57;;;;;;;;;;5008027;28;20544;-78
2023/12/08 08:59:05;;;;;;;8.90;6.47;;;;;;;;;;5001779;28;20113;-78
2023/12/08 09:01:30;;;;;;;5.82;3.63;;;;;;;;;;4995523;28;20026;-78
2023/12/08 09:03:56;;;;;;;9.38;6.93;;;;;;;;;;4990315;28;20026;-79
2023/12/08 09:06:21;;;;;;;3.58;2.97;;;;;;;;;;4998831;28;20034;-79
2023/12/08 09:08:47;;;;;;;2.08;1.88;;;;;;;;;;4993613;28;20042;-79
2023/12/08 09:11:12;;;;;;;4.28;1.70;;;;;;;;;;4996482;28;20061;-79
2023/12/08 09:13:37;;;;;;;2.92;2.28;;;;;;;;;;4985271;28;20511;-78
2023/12/08 09:16:04;;;;;;;7.95;4.55;;;;;;;;;;4995891;28;20032;-79
2023/12/08 09:18:29;;;;;;;6.28;4.68;;;;;;;;;;4995979;28;20031;-79
2023/12/08 09:20:54;;;;;;;2.08;1.88;;;;;;;;;;4995625;28;20137;-78
2023/12/08 09:23:19;;;;;;;2.30;2.08;;;;;;;;;;4996316;28;20038;-78
2023/12/08 09:25:45;;;;;;;2.10;1.92;;;;;;;;;;5001272;28;20045;-78
2023/12/08 09:28:10;;;;;;;2.58;1.85;;;;;;;;;;4996750;28;20030;-78
2023/12/08 09:30:36;;;;;;;2.50;1.88;;;;;;;;;;5002175;28;20411;-78
2023/12/08 09:33:01;;;;;;;3.25;1.90;;;;;;;;;;4992348;28;20049;-79
2023/12/08 09:35:26;;;;;;;2.72;1.90;;;;;;;;;;5002013;28;20042;-78
2023/12/08 09:37:51;;;;;;;1.70;1.60;;;;;;;;;;4996862;28;20030;-78
2023/12/08 09:40:17;;;;;;;2.08;1.85;;;;;;;;;;5001895;28;20034;-78
2023/12/08 09:42:47;;;;;;;2.03;1.80;;;;;;;;;;4999831;28;20031;-78
2023/12/08 09:45:12;;;;;;;1.90;1.70;;;;;;;;;;4991961;28;20105;-78
2023/12/08 09:47:40;;;;;;;3.95;1.90;;;;;;;;;;5005298;28;20085;-79
2023/12/08 09:50:06;;;;;;;2.55;1.65;;;;;;;;;;4999289;28;20141;-79
2023/12/08 09:52:34;;;;;;;3.13;2.00;;;;;;;;;;4994878;28;20037;-78
2023/12/08 09:54:59;;;;;;;4.38;2.10;;;;;;;;;;4996800;28;20118;-79
2023/12/08 09:57:26;;;;;;;2.38;2.00;;;;;;;;;;4994280;28;20494;-79
2023/12/08 09:59:52;;;;;;;3.67;2.03;;;;;;;;;;5001303;28;20018;-79
2023/12/08 10:02:18;;;;;;;18.92;4.07;;;;;;;;;;4996501;28;20069;-79
2023/12/08 10:04:43;;;;;;;10.00;3.58;;;;;;;;;;5004361;28;20062;-79
2023/12/08 10:07:10;;;;;;;5.15;1.98;;;;;;;;;;5010509;28;20475;-79
2023/12/08 10:09:36;;;;;;;8.18;2.53;;;;;;;;;;4998726;28;20034;-79
2023/12/08 10:12:02;;;;;;;7.85;2.35;;;;;;;;;;5001022;28;20034;-79
2023/12/08 10:14:27;;;;;;;4.50;2.67;;;;;;;;;;5003744;28;20031;-79
2023/12/08 10:16:52;;;;;;;11.95;4.05;;;;;;;;;;4998219;28;20041;-80
2023/12/08 10:19:21;;;;;;;12.05;4.53;;;;;;;;;;5008045;28;20406;-80
2023/12/08 10:22:06;;;;;;;14.38;4.97;;;;;;;;;;5008167;28;20101;-79
2023/12/08 10:24:32;;;;;;;6.47;3.25;;;;;;;;;;5005163;28;20498;-79
2023/12/08 10:26:58;;;;;;;3.70;2.17;;;;;;;;;;4999973;28;20113;-79
2023/12/08 10:29:23;;;;;;;3.25;2.00;;;;;;;;;;5011473;28;20034;-80
2023/12/08 10:31:50;;;;;;;2.08;1.88;;;;;;;;;;5004507;28;20203;-79
2023/12/08 10:34:15;;;;;;;2.95;1.92;;;;;;;;;;5000692;28;20034;-79
2023/12/08 10:36:41;;;;;;;5.25;2.00;;;;;;;;;;4980812;28;20087;-79
2023/12/08 10:39:06;;;;;;;2.53;1.60;;;;;;;;;;5006351;28;20026;-80
2023/12/08 10:41:33;;;;;;;1.83;1.48;;;;;;;;;;5009440;28;20022;-79
2023/12/08 10:44:02;;;;;;;2.03;1.83;;;;;;;;;;4998346;28;20037;-77
2023/12/08 10:46:29;;;;;;;3.35;1.83;;;;;;;;;;5004657;28;20410;-79
2023/12/08 10:48:56;;;;;;;1.85;1.63;;;;;;;;;;5002503;28;20089;-80
2023/12/08 10:51:23;;;;;;;2.17;1.67;;;;;;;;;;4999804;28;20104;-78
2023/12/08 10:53:49;;;;;;;2.00;1.80;;;;;;;;;;4997693;28;20033;-78
2023/12/08 10:56:17;;;;;;;4.28;2.30;;;;;;;;;;4998066;28;20045;-78
2023/12/08 10:58:44;;;;;;;21.90;10.30;;;;;;;;;;4997847;28;20038;-78
2023/12/08 11:01:12;;;;;;;8.55;4.93;;;;;;;;;;4997952;28;20092;-78
2023/12/08 11:03:40;;;;;;;5.32;3.45;;;;;;;;;;5000149;28;20088;-78
2023/12/08 11:06:06;;;;;;;7.78;4.97;;;;;;;;;;5002181;28;20022;-78
2023/12/08 11:08:33;;;;;;;12.45;7.15;;;;;;;;;;5008715;28;20112;-78
2023/12/08 11:11:01;;;;;;;7.15;3.80;;;;;;;;;;5003976;28;20035;-77
2023/12/08 11:13:28;;;;;;;11.90;7.90;;;;;;;;;;5000361;28;20520;-78
2023/12/08 11:16:05;;;;;;;10.05;5.28;;;;;;;;;;5001070;28;20045;-77
2023/12/08 11:18:35;;;;;;;7.80;4.22;;;;;;;;;;4994469;28;20093;-77
2023/12/08 11:21:05;;;;;;;8.70;5.85;;;;;;;;;;5003780;28;20049;-78
2023/12/08 11:23:30;;;;;;;6.75;5.00;;;;;;;;;;5008477;28;20045;-78
2023/12/08 11:26:06;;;;;;;5.70;4.30;;;;;;;;;;4999185;28;20037;-78
2023/12/08 11:29:04;;;;;;;6.43;3.80;;;;;;;;;;5003197;28;20117;-78
2023/12/08 11:31:41;;;;;;;4.00;3.17;;;;;;;;;;5002590;28;20045;-78
2023/12/08 11:34:13;;;;;;;5.78;2.78;;;;;;;;;;4985749;28;20469;-82
2023/12/08 11:36:45;;;;;;;4.43;2.90;;;;;;;;;;5004953;28;20042;-77
2023/12/08 11:39:33;;;;;;;4.63;2.88;;;;;;;;;;4994660;28;20033;-77
2023/12/08 11:41:58;;;;;;;3.28;2.85;;;;;;;;;;4982733;28;20112;-77
2023/12/08 11:44:25;;;;;;;4.82;3.03;;;;;;;;;;5002588;28;20127;-79
2023/12/08 11:46:51;;;;;;;3.92;2.80;;;;;;;;;;5000371;28;20034;-78
2023/12/08 11:49:16;;;;;;;3.83;2.72;;;;;;;;;;5006066;28;20434;-76
2023/12/08 11:52:04;;;;;;;4.85;3.17;;;;;;;;;;5004647;28;20034;-77
2023/12/08 11:54:54;;;;;;;3.83;2.70;;;;;;;;;;5001279;28;20042;-78
2023/12/08 11:57:20;;;;;;;3.13;2.40;;;;;;;;;;5001753;28;20117;-77
2023/12/08 11:59:45;;;;;;;3.60;2.90;;;;;;;;;;5001710;28;20114;-77
2023/12/08 12:02:11;;;;;;;5.20;2.75;;;;;;;;;;5001633;28;20033;-77
2023/12/08 12:04:37;;;;;;;2.70;2.50;;;;;;;;;;5004340;28;20042;-77
2023/12/08 12:07:03;;;;;;;3.63;2.78;;;;;;;;;;4998250;28;20084;-77
2023/12/08 12:09:31;;;;;;;4.30;3.33;;;;;;;;;;5003703;28;20046;-77
2023/12/08 12:11:58;;;;;;;4.25;3.20;;;;;;;;;;4993112;28;20033;-77
2023/12/08 12:14:26;;;;;;;5.18;3.17;;;;;;;;;;5001835;28;20074;-78
2023/12/08 12:16:51;;;;;;;5.88;3.45;;;;;;;;;;5000665;28;20041;-78
2023/12/08 12:19:17;;;;;;;10.68;3.20;;;;;;;;;;5001760;28;20148;-78
2023/12/08 12:21:42;;;;;;;4.28;2.95;;;;;;;;;;5007929;28;20030;-78
2023/12/08 12:24:08;;;;;;;5.80;3.55;;;;;;;;;;5003022;28;20049;-78
2023/12/08 12:26:33;;;;;;;5.57;3.55;;;;;;;;;;5003163;28;20033;-77
2023/12/08 12:28:59;;;;;;;6.05;3.88;;;;;;;;;;4997688;28;20038;-78
2023/12/08 12:31:24;;;;;;;3.50;2.85;;;;;;;;;;5003958;28;20033;-77
2023/12/08 12:33:49;;;;;;;2.75;2.47;;;;;;;;;;5003190;28;20113;-77
2023/12/08 12:36:14;;;;;;;4.53;2.92;;;;;;;;;;4998175;28;20022;-77
2023/12/08 12:38:42;;;;;;;3.88;2.40;;;;;;;;;;5002860;28;20049;-78
2023/12/08 12:41:23;;;;;;;6.28;3.03;;;;;;;;;;5003203;28;20038;-77
2023/12/08 12:43:56;;;;;;;4.32;3.22;;;;;;;;;;4996411;28;20034;-78
2023/12/08 12:46:21;;;;;;;3.90;2.90;;;;;;;;;;4987543;28;20034;-77
2023/12/08 12:48:47;;;;;;;5.18;3.45;;;;;;;;;;5003260;28;20054;-77
2023/12/08 12:51:14;;;;;;;5.82;3.85;;;;;;;;;;5006871;28;20026;-77
2023/12/08 12:53:46;;;;;;;4.07;3.08;;;;;;;;;;5000212;28;20641;-77
2023/12/08 12:56:11;;;;;;;4.72;3.50;;;;;;;;;;4999018;28;20038;-77
2023/12/08 12:58:36;;;;;;;5.28;3.60;;;;;;;;;;5002454;28;20060;-78
2023/12/08 13:01:12;;;;;;;5.97;4.00;;;;;;;;;;4999062;28;20078;-78
2023/12/08 13:03:43;;;;;;;5.75;3.95;;;;;;;;;;5001192;28;20046;-78
2023/12/08 13:06:08;;;;;;;5.47;3.75;;;;;;;;;;5001552;28;20030;-78
2023/12/08 13:08:43;;;;;;;6.38;4.22;;;;;;;;;;5008428;28;20076;-78
2023/12/08 13:11:09;;;;;;;7.32;3.83;;;;;;;;;;5002207;28;20038;-78
2023/12/08 13:13:37;;;;;;;9.93;4.47;;;;;;;;;;5001477;28;20034;-77
2023/12/08 13:16:06;;;;;;;7.45;4.60;;;;;;;;;;4992807;28;20044;-77
2023/12/08 13:18:32;;;;;;;6.57;4.30;;;;;;;;;;5001295;28;20038;-77
2023/12/08 13:20:57;;;;;;;6.45;4.32;;;;;;;;;;5005841;28;20116;-77
2023/12/08 13:23:22;;;;;;;7.63;3.65;;;;;;;;;;5009080;28;20457;-77
2023/12/08 13:25:48;;;;;;;3.60;3.28;;;;;;;;;;5006419;28;20037;-77
2023/12/08 13:28:13;;;;;;;4.22;3.10;;;;;;;;;;5005580;28;20092;-77
2023/12/08 13:30:38;;;;;;;4.70;3.33;;;;;;;;;;5010163;28;20049;-77
2023/12/08 13:33:04;;;;;;;7.07;3.45;;;;;;;;;;5008900;28;20025;-77
2023/12/08 13:35:29;;;;;;;7.03;3.13;;;;;;;;;;5003060;28;20069;-77
2023/12/08 13:37:55;;;;;;;4.70;3.30;;;;;;;;;;5010643;28;20029;-77
2023/12/08 13:40:25;;;;;;;4.03;3.58;;;;;;;;;;5010385;28;20395;-77
2023/12/08 13:42:52;;;;;;;5.78;3.78;;;;;;;;;;5013790;28;20454;-77
2023/12/08 13:45:17;;;;;;;6.57;4.53;;;;;;;;;;5013149;28;20052;-77
2023/12/08 13:47:42;;;;;;;11.30;4.93;;;;;;;;;;5011779;28;20029;-76
2023/12/08 13:50:08;;;;;;;9.38;5.22;;;;;;;;;;5009130;28;20112;-76
2023/12/08 13:52:34;;;;;;;11.65;4.97;;;;;;;;;;5007514;28;20175;-76
2023/12/08 13:55:00;;;;;;;9.50;5.22;;;;;;;;;;4993465;28;20518;-77
2023/12/08 13:57:25;;;;;;;6.43;3.70;;;;;;;;;;5010689;28;20033;-76
2023/12/08 13:59:51;;;;;;;7.85;3.50;;;;;;;;;;5012341;28;20022;-76
2023/12/08 14:02:17;;;;;;;4.38;3.60;;;;;;;;;;5008517;28;20042;-76
2023/12/08 14:04:42;;;;;;;4.65;3.03;;;;;;;;;;5008871;28;20110;-76
2023/12/08 14:07:08;;;;;;;4.10;3.03;;;;;;;;;;5008510;28;20245;-76
2023/12/08 14:09:34;;;;;;;5.82;3.25;;;;;;;;;;5008282;28;20034;-75
2023/12/08 14:12:00;;;;;;;4.72;3.30;;;;;;;;;;5009329;28;20030;-76
2023/12/08 14:14:25;;;;;;;6.53;3.63;;;;;;;;;;5008281;28;20524;-76
2023/12/08 14:16:50;;;;;;;3.83;3.35;;;;;;;;;;5005715;28;20041;-76
2023/12/08 14:19:16;;;;;;;10.68;3.65;;;;;;;;;;5005344;28;20038;-76
2023/12/08 14:21:43;;;;;;;6.70;3.53;;;;;;;;;;5006442;28;20034;-76
2023/12/08 14:24:08;;;;;;;10.10;3.58;;;;;;;;;;5001511;28;20117;-78
2023/12/08 14:26:33;;;;;;;7.97;3.58;;;;;;;;;;5007146;28;20093;-76
2023/12/08 14:28:59;;;;;;;11.18;3.75;;;;;;;;;;5018400;28;20045;-74
2023/12/08 14:31:24;;;;;;;7.28;3.22;;;;;;;;;;5010119;28;20044;-76
2023/12/08 14:33:49;;;;;;;3.47;2.38;;;;;;;;;;5011125;28;20041;-76